Date,TemperatureHighF,TemperatureAvgF,TemperatureLowF,DewpointHighF,DewpointAvgF,DewpointLowF,HumidityHigh,HumidityAvg,HumidityLow,PressureMaxIn,PressureMinIn,WindSpeedMaxMPH,WindSpeedAvgMPH,GustSpeedMaxMPH,PrecipitationSumIn
2013-1-1,60.6,46.4,37.4,42.6,38.2,33.3,91,75,49,30.54,30.47,4,0,10,0.00
2013-1-2,69.4,48.0,33.8,44.2,35.7,29.8,87,66,33,30.51,30.40,4,0,6,0.00
2013-1-3,67.6,47.4,34.9,44.1,36.3,29.8,84,67,39,30.53,30.43,3,0,7,0.00
2013-1-4,70.7,50.2,37.8,46.7,39.0,32.9,84,68,38,30.56,30.44,2,0,5,0.00
2013-1-5,61.2,48.9,39.0,51.5,44.9,35.5,98,86,66,30.53,30.34,4,1,9,0.07
2013-1-6,50.9,46.3,40.1,48.6,45.2,39.1,99,96,86,30.47,30.32,4,0,8,0.06
2013-1-7,69.8,50.3,37.4,56.5,45.2,36.9,99,85,50,30.53,30.43,3,0,7,0.01
2013-1-8,72.7,54.2,43.2,56.8,46.7,41.7,99,79,46,30.51,30.40,2,0,6,0.00
2013-1-9,60.1,48.9,41.9,51.4,44.7,38.9,96,85,72,30.42,30.27,3,0,11,0.01
2013-1-10,59.5,47.3,38.1,41.8,38.0,32.8,91,71,47,30.47,30.34,5,1,12,0.00
2013-1-11,62.2,45.4,33.6,43.9,37.1,30.2,90,74,45,30.54,30.40,6,0,11,0.00
2013-1-12,62.6,45.3,34.7,41.3,31.8,24.8,92,64,25,30.53,30.41,6,0,9,0.00
2013-1-13,59.5,41.9,31.6,33.1,28.0,22.8,78,61,26,30.54,30.44,4,0,9,0.00
2013-1-14,61.0,43.6,32.0,26.6,23.5,18.5,64,48,25,30.67,30.50,4,0,8,0.00
2013-1-15,65.8,46.0,33.1,36.9,29.6,24.6,76,56,27,30.74,30.66,5,0,10,0.00
2013-1-16,69.8,48.1,33.8,41.9,33.9,28.3,82,62,29,30.71,30.52,4,0,6,0.00
2013-1-17,75.4,52.1,35.8,44.9,37.5,30.2,84,61,32,30.53,30.42,3,0,6,0.00
2013-1-18,75.0,53.6,39.4,45.5,39.2,33.4,81,61,32,30.50,30.40,4,0,9,0.00
2013-1-19,74.7,54.9,42.6,47.9,39.9,34.6,74,59,35,30.52,30.42,4,0,8,0.00
2013-1-20,74.7,54.8,42.3,44.7,37.9,32.8,71,56,28,30.50,30.40,9,0,6,66.68
2013-1-21,79.7,55.6,40.1,46.9,38.6,30.9,72,56,29,30.45,30.35,3,0,5,0.00
2013-1-22,75.4,55.0,40.5,47.7,39.1,31.1,73,57,35,30.38,30.27,3,0,6,0.00
2013-1-23,65.8,54.3,49.1,52.7,45.6,37.6,97,74,41,30.35,30.23,3,0,4,0.02
2013-1-24,57.4,54.2,51.4,55.8,53.3,51.2,99,97,88,30.46,30.33,1,0,4,0.17
2013-1-25,75.2,60.2,54.0,65.9,56.4,53.7,99,89,61,30.46,30.32,4,0,8,0.01
2013-1-26,67.6,53.6,42.6,54.8,46.8,38.3,99,80,45,30.37,30.28,4,0,9,0.00
2013-1-27,66.2,50.8,40.5,43.5,39.1,34.3,88,67,33,30.45,30.35,6,0,11,0.00
2013-1-28,66.0,50.4,41.9,47.5,41.2,37.3,89,72,44,30.58,30.44,5,0,10,0.00
2013-1-29,67.1,50.8,38.8,48.3,42.8,36.9,94,76,48,30.64,30.54,4,0,8,0.00
2013-1-30,79.9,58.6,45.9,48.7,43.4,37.7,84,61,32,30.62,30.53,4,0,8,0.00
2013-1-31,76.1,56.2,41.7,51.8,44.1,36.9,88,67,38,30.57,30.45,3,0,8,0.00
2013-2-1,81.7,58.4,43.9,53.5,46.5,39.3,88,68,37,30.49,30.38,3,0,7,0.00
2013-2-2,68.4,53.1,46.2,55.3,48.4,42.1,96,85,59,30.57,30.48,3,0,7,0.00
2013-2-3,69.8,53.7,42.4,49.9,45.9,40.5,95,77,46,30.53,30.41,3,0,8,0.00
2013-2-4,70.2,51.1,42.1,54.5,46.9,40.2,99,87,56,30.47,30.35,4,0,7,0.00
2013-2-5,64.6,51.7,41.7,50.2,46.2,39.3,95,83,57,30.44,30.36,4,0,8,0.00
2013-2-6,70.2,51.5,39.7,50.2,42.4,37.3,93,74,42,30.48,30.40,6,0,9,0.00
2013-2-7,63.5,47.9,38.7,51.9,41.1,36.3,94,79,43,30.47,30.31,4,0,8,0.03
2013-2-8,45.1,45.1,45.1,42.4,42.4,42.4,90,90,90,30.31,30.31,0,0,0,0.03
2013-2-9,45.1,45.1,45.1,42.4,42.4,42.4,90,90,90,30.31,30.31,0,0,0,0.03
2013-2-10,45.1,45.1,45.1,42.4,42.4,42.4,90,90,90,30.31,30.31,0,0,0,0.03
2013-2-11,45.1,45.1,45.1,42.4,42.4,42.4,90,90,90,30.31,30.31,0,0,0,0.03
2013-2-12,45.1,45.1,45.1,42.4,42.4,42.4,90,90,90,30.31,30.31,0,0,0,0.03
2013-2-13,45.1,45.1,45.1,42.4,42.4,42.4,90,90,90,30.31,30.31,0,0,0,0.03
2013-2-14,45.1,45.1,45.1,42.4,42.4,42.4,90,90,90,30.31,30.31,0,0,0,0.03
2013-2-15,45.1,45.1,45.1,42.4,42.4,42.4,90,90,90,30.31,30.31,0,0,0,0.03
2013-2-16,45.1,45.1,45.1,42.4,42.4,42.4,90,90,90,30.31,30.31,0,0,0,0.03
2013-2-17,45.1,45.1,45.1,42.4,42.4,42.4,90,90,90,30.31,30.31,0,0,0,0.03
2013-2-18,79.0,45.3,45.1,47.4,42.4,42.4,90,90,33,30.31,30.12,1,0,2,0.03
2013-3-1,84.0,64.8,53.1,52.1,49.4,46.4,79,60,32,30.66,30.62,4,0,8,0.00
2013-3-2,78.1,62.2,51.4,55.0,50.3,10.4,83,67,43,30.63,30.45,4,0,6,0.00
2013-3-3,74.7,58.4,50.5,55.2,49.3,44.8,91,74,40,30.50,30.41,4,0,8,0.00
2013-3-4,70.2,54.3,44.4,49.2,44.4,39.9,86,71,46,30.54,30.44,6,1,13,0.00
2013-3-5,66.2,53.8,45.1,45.5,43.0,40.9,88,69,43,30.47,30.26,10,2,21,0.24
2013-3-6,62.8,52.4,41.9,46.8,42.0,37.1,87,69,45,30.47,30.26,10,2,19,0.20
2013-3-7,65.5,49.9,38.5,45.0,39.7,35.0,94,71,35,30.40,30.23,4,1,11,0.38
2013-3-8,68.5,53.3,42.1,49.1,42.7,37.0,96,70,40,30.49,30.22,4,1,13,0.04
2013-3-9,72.9,55.2,39.7,51.4,40.3,36.2,90,62,28,30.71,30.48,5,1,13,0.00
2013-3-10,80.1,59.3,42.3,51.7,38.7,29.2,88,54,16,30.74,30.63,5,1,9,0.00
2013-3-11,82.9,60.3,42.6,51.2,41.1,34.8,77,54,20,30.66,30.50,7,1,11,0.00
2013-3-12,68.5,51.4,45.7,53.4,44.9,39.9,93,80,54,30.55,30.51,2,0,4,0.00
2013-3-17,78.4,65.5,47.8,49.1,43.0,37.0,77,47,25,30.55,30.43,6,1,10,0.00
2013-3-18,75.2,57.8,42.8,50.2,44.3,37.2,84,63,39,30.53,30.42,4,0,7,0.00
2013-3-19,80.2,59.3,47.3,51.9,44.5,39.1,91,62,30,30.54,30.45,5,1,11,0.05
2013-3-20,79.2,61.0,52.5,57.9,52.9,48.9,96,77,42,30.53,30.46,5,1,11,0.03
2013-3-21,72.7,57.3,42.4,49.3,43.0,37.3,83,62,33,30.54,30.40,7,1,14,0.00
2013-3-22,76.5,58.4,41.9,41.3,32.4,16.8,86,46,11,30.51,30.40,10,1,14,0.00
2013-3-23,77.4,59.3,45.0,45.5,32.0,20.9,71,41,13,30.53,30.43,6,1,10,0.00
2013-3-24,79.0,59.5,43.2,51.1,44.2,35.6,84,60,35,30.49,30.36,7,1,11,0.00
2013-3-25,69.1,54.8,44.4,50.2,44.4,39.5,85,70,46,30.42,30.35,7,1,10,0.00
2013-3-26,76.6,58.4,44.8,51.3,45.6,40.2,85,66,38,30.42,30.32,7,1,11,0.00
2013-3-27,74.1,59.7,47.8,54.6,49.5,44.2,87,71,48,30.41,30.34,7,1,11,0.00
2013-3-28,81.1,64.8,55.9,57.4,53.9,51.6,92,71,40,30.48,30.40,4,1,10,0.00
2013-3-29,87.8,67.3,52.7,57.2,53.6,49.2,90,66,28,30.48,30.38,6,1,11,0.00
2013-3-30,79.5,64.0,54.7,56.2,52.1,45.8,90,68,32,30.47,30.35,8,1,14,0.00
2013-3-31,74.5,62.1,54.0,56.9,52.4,49.1,95,73,44,30.46,30.38,9,2,21,0.02
2013-4-1,76.6,61.6,54.1,60.0,52.6,48.6,97,75,40,30.55,30.44,7,1,14,0.14
2013-4-2,77.9,61.6,48.2,55.6,50.9,45.4,92,71,41,30.59,30.48,5,1,10,0.00
2013-4-3,87.1,63.9,49.1,57.8,51.8,46.4,94,70,32,30.55,30.36,5,1,11,0.00
2013-4-4,74.3,61.6,52.5,57.8,53.6,50.3,94,76,53,30.52,30.40,8,2,13,0.12
2013-4-5,77.0,62.5,51.8,55.0,50.9,46.2,84,68,41,30.59,30.51,7,1,14,0.00
2013-4-6,76.3,60.3,50.9,55.8,50.9,46.7,89,73,44,30.60,30.53,8,1,15,0.00
2013-4-7,77.5,61.0,50.2,55.8,49.6,45.0,89,68,38,30.58,30.29,4,1,11,0.03
2013-4-8,71.4,57.6,47.8,50.7,39.4,33.2,88,54,26,30.42,30.24,10,3,19,0.00
2013-4-9,81.3,66.0,51.8,42.4,38.1,31.6,65,39,18,30.49,30.41,8,2,14,0.00
2013-4-10,94.5,74.1,55.2,52.1,46.1,39.3,81,40,21,30.57,30.44,6,1,14,0.00
2013-4-11,79.9,64.1,50.7,52.9,48.9,44.1,89,62,30,30.49,30.25,5,1,11,0.00
2013-4-12,85.5,62.7,44.4,54.5,47.9,40.8,88,63,29,30.32,30.22,4,1,10,0.00
2013-4-13,80.8,61.3,46.2,53.6,45.6,40.0,87,60,33,30.32,30.24,6,1,13,0.00
2013-4-14,78.6,59.6,43.2,49.7,42.3,36.1,85,58,26,30.34,30.26,5,1,13,0.00
2013-4-15,64.0,54.8,45.0,47.8,40.0,34.2,85,60,37,30.37,30.27,8,2,17,0.00
2013-4-16,73.6,56.9,39.0,44.8,34.2,26.7,79,47,18,30.54,30.37,5,1,12,0.00
2013-4-17,76.1,62.3,51.1,37.7,32.0,23.9,54,35,15,30.66,30.54,8,2,16,0.00
2013-4-18,85.6,64.8,45.3,48.4,37.9,31.7,67,43,16,30.67,30.57,7,1,12,0.00
2013-4-19,90.3,69.4,49.6,55.0,46.1,38.8,73,47,22,30.64,30.47,6,1,14,0.00
2013-4-20,88.0,68.3,51.1,53.1,46.6,41.3,79,52,20,30.51,30.37,8,1,14,0.00
2013-4-21,95.0,71.7,50.2,57.3,43.9,31.9,84,45,12,30.44,30.32,4,1,11,0.00
2013-4-22,96.6,75.4,57.6,56.6,44.9,29.7,69,40,10,30.36,30.23,6,1,11,0.00
2013-4-23,92.1,69.5,53.8,51.9,40.0,23.9,79,42,10,30.34,30.25,6,1,13,0.00
2013-4-24,79.3,63.4,46.8,55.2,50.0,41.2,84,64,39,30.36,30.24,8,1,14,0.00
2013-4-25,77.0,62.8,50.0,54.7,51.0,46.8,91,68,44,30.54,30.34,7,1,11,0.00
2013-4-26,78.4,63.2,53.2,55.4,50.9,47.4,85,66,44,30.63,30.53,6,1,11,0.00
2013-4-27,84.6,64.9,51.8,58.0,51.7,46.7,88,66,40,30.63,30.49,7,1,10,0.00
2013-4-28,93.0,69.3,50.7,59.2,52.7,48.1,92,61,27,30.50,30.28,5,1,11,0.00
2013-4-29,98.4,76.7,56.7,58.6,51.9,43.7,82,49,19,30.30,30.16,5,1,11,0.00
2013-4-30,90.7,70.5,52.0,57.3,49.2,40.5,86,53,18,30.26,30.18,8,1,15,0.04
2013-5-1,93.6,74.8,57.0,43.4,31.8,20.1,54,25,10,30.50,30.25,6,1,9,0.00
2013-5-2,100.4,76.8,56.7,52.8,39.4,28.4,56,32,10,30.55,30.46,7,1,11,0.00
2013-5-3,98.4,77.9,58.5,51.1,37.9,29.3,48,28,10,30.50,30.20,6,1,12,0.00
2013-5-4,99.0,75.2,56.7,56.4,45.2,35.2,66,39,13,30.20,29.94,7,1,11,0.00
2013-5-5,74.8,62.9,56.7,51.4,48.9,45.1,71,61,42,30.21,29.99,11,4,25,0.00
2013-5-6,78.1,64.8,52.9,57.2,50.0,46.7,83,60,40,30.36,30.21,7,1,14,0.00
2013-5-7,78.4,66.3,56.1,56.6,51.8,46.5,84,61,43,30.46,30.35,6,1,11,0.00
2013-5-8,76.3,62.7,53.2,55.6,51.2,46.2,84,67,47,30.56,30.44,7,1,11,0.00
2013-5-9,76.1,63.0,53.6,55.0,51.1,47.9,83,67,46,30.60,30.50,6,1,11,0.00
2013-5-10,77.7,64.6,54.5,58.0,53.3,49.0,88,69,48,30.60,30.52,6,1,11,0.00
2013-5-11,94.8,71.0,54.0,62.6,56.3,51.1,92,65,31,30.57,30.44,6,1,10,0.00
2013-5-12,88.7,71.0,53.1,64.1,56.0,48.5,87,63,38,30.55,30.44,7,1,11,0.00
2013-5-13,86.5,68.8,52.5,61.8,54.5,46.7,85,63,42,30.51,30.37,6,1,11,0.00
2013-5-14,85.8,67.9,52.0,58.9,51.2,44.4,89,59,30,30.45,30.35,5,1,11,0.00
2013-5-15,80.1,63.9,48.0,52.5,46.4,42.5,82,56,29,30.48,30.43,5,1,11,0.00
2013-5-16,79.3,63.9,53.1,57.4,50.7,45.5,79,64,41,30.46,30.38,5,1,13,0.00
2013-5-17,80.1,63.4,49.5,52.5,46.4,40.9,83,57,30,30.51,30.41,8,1,12,0.00
2013-5-18,83.8,65.3,46.2,54.9,48.0,39.4,83,57,27,30.55,30.49,5,1,11,0.00
2013-5-19,90.7,70.0,50.9,56.0,48.3,39.7,80,52,18,30.53,30.37,6,1,16,0.00
2013-5-20,97.0,74.7,54.1,58.4,44.4,29.5,79,43,10,30.41,30.32,7,1,14,0.00
2013-5-21,81.3,63.9,50.7,54.7,44.8,30.9,80,54,17,30.41,30.34,6,1,11,0.00
2013-5-22,73.6,58.8,48.6,40.5,34.9,22.0,73,44,16,30.43,30.34,6,2,11,0.00
2013-5-23,76.8,59.6,44.1,48.6,41.7,37.7,81,54,33,30.43,30.35,4,1,11,0.00
2013-5-24,80.2,61.8,44.4,50.6,42.4,36.0,76,52,29,30.42,30.35,8,1,16,0.00
2013-5-25,77.0,61.5,45.3,48.3,44.0,38.9,81,56,29,30.49,30.40,8,1,14,0.00
2013-5-26,80.1,65.7,52.3,55.5,50.6,45.3,80,61,36,30.56,30.47,8,1,15,0.00
2013-5-27,74.7,62.3,51.1,57.5,52.0,46.6,85,70,46,30.56,30.41,7,1,11,0.00
2013-5-28,79.5,66.6,57.0,59.4,54.9,48.5,87,68,39,30.42,30.32,6,1,11,0.00
2013-5-29,81.0,65.9,54.7,58.5,50.4,43.3,78,59,34,30.39,30.31,7,1,16,0.00
2013-5-30,82.6,66.0,47.7,53.3,46.4,39.6,80,53,28,30.41,30.35,8,1,13,0.00
2013-5-31,96.1,71.8,49.6,57.4,48.7,40.6,78,49,20,30.43,30.31,7,1,12,0.00
2013-6-1,100.0,76.2,54.1,59.9,53.2,46.5,83,51,18,30.35,30.18,7,1,11,0.00
2013-6-2,87.8,70.1,54.9,59.8,55.0,49.4,87,62,38,30.21,30.08,6,1,11,0.00
2013-6-3,86.7,68.3,51.1,59.7,53.6,46.9,87,63,37,30.27,30.13,6,1,11,0.00
2013-6-4,80.6,67.9,56.3,59.0,55.2,51.4,85,66,46,30.38,30.26,6,1,12,0.00
2013-6-5,79.0,67.1,58.5,58.0,55.0,52.8,84,67,46,30.40,30.32,5,1,11,0.00
2013-6-6,85.6,69.1,58.6,61.0,55.9,52.1,86,65,42,30.37,30.25,7,1,10,0.00
2013-6-7,99.1,76.9,59.4,65.1,59.1,54.4,86,59,32,30.31,30.13,6,1,11,0.00
2013-6-8,99.0,78.3,60.4,67.1,59.7,50.7,80,56,34,30.21,30.10,5,1,11,0.00
2013-6-9,88.2,71.6,60.6,62.8,57.9,51.8,88,65,41,30.28,30.20,4,1,12,0.00
2013-6-10,83.1,67.7,56.3,56.5,53.0,48.8,81,61,39,30.35,30.25,8,2,14,0.00
2013-6-11,80.6,67.7,58.5,59.6,56.2,52.6,82,68,48,30.39,30.31,8,1,11,0.00
2013-6-12,89.1,69.5,51.8,57.9,47.6,36.5,81,50,16,30.44,30.33,7,1,12,0.00
2013-6-13,87.8,69.2,48.7,53.8,46.5,37.1,79,49,18,30.50,30.41,6,1,12,0.00
2013-6-14,94.1,73.3,54.0,58.1,48.6,36.0,81,49,14,30.41,30.23,8,1,12,0.00
2013-6-15,81.7,66.0,52.2,58.0,51.9,43.0,81,62,43,30.43,30.25,8,1,12,0.00
2013-6-16,86.7,69.1,50.5,59.6,52.5,46.2,86,59,31,30.52,30.42,7,1,14,0.00
2013-6-17,83.5,67.8,52.3,59.4,53.4,47.3,84,63,40,30.52,30.45,9,1,14,0.00
2013-6-18,76.5,64.5,52.3,57.3,49.6,45.5,85,61,35,30.47,30.42,8,2,14,0.00
2013-6-19,81.9,66.9,50.5,53.9,47.4,43.1,78,52,30,30.47,30.41,9,2,17,0.00
2013-6-20,85.5,63.3,50.0,54.5,45.7,38.9,79,56,21,30.44,30.36,4,1,9,0.00
2013-6-21,89.4,70.2,50.9,57.1,50.5,43.9,78,54,27,30.40,30.33,8,1,14,0.00
2013-6-22,94.5,73.6,52.5,58.6,50.9,40.1,80,50,19,30.36,30.26,5,1,12,0.00
2013-6-23,80.6,67.6,56.8,62.3,57.8,51.7,85,72,50,30.31,30.22,5,1,11,0.00
2013-6-24,74.1,66.6,61.3,64.2,61.0,58.3,94,83,69,30.32,30.20,4,1,8,0.02
2013-6-25,89.8,72.3,62.8,67.4,61.7,56.9,86,70,48,30.39,30.30,7,2,12,0.00
2013-6-26,91.2,76.8,66.6,68.3,64.4,59.8,90,68,46,30.47,30.38,8,1,15,0.00
2013-6-27,97.9,78.4,61.0,67.9,61.5,57.4,91,60,28,30.49,30.42,6,1,11,0.00
2013-6-28,103.5,83.0,61.7,68.8,61.6,52.4,79,52,28,30.46,30.31,8,1,13,0.00
2013-6-29,105.4,85.0,65.3,65.1,59.1,50.6,68,46,22,30.35,30.21,6,1,13,0.00
2013-6-30,98.8,80.1,62.4,67.3,60.7,52.5,79,55,32,30.27,30.19,4,1,9,0.00
2013-7-1,101.5,80.5,61.2,66.8,60.8,54.2,84,56,31,30.26,30.22,6,1,9,0.00
2013-7-2,103.8,80.6,65.5,70.0,63.5,59.1,85,60,30,30.34,30.23,6,1,11,0.00
2013-7-3,101.8,79.4,63.5,69.2,63.5,60.2,91,63,33,30.34,30.17,4,1,9,0.00
2013-7-4,103.1,83.1,67.8,70.4,64.1,57.4,80,56,32,30.20,30.10,6,1,8,0.00
2013-7-5,86.2,72.3,58.8,59.6,56.6,52.8,81,60,39,30.22,30.13,5,1,9,0.00
2013-7-6,87.6,69.8,54.1,60.9,55.8,49.7,86,65,38,30.22,30.14,6,1,11,0.00
2013-7-7,88.2,70.0,54.1,62.3,56.2,49.4,85,65,40,30.28,30.18,6,1,12,0.00
2013-7-8,91.2,72.3,58.1,62.3,57.9,51.4,84,64,37,30.39,30.27,6,1,10,0.00
2013-7-9,97.2,75.9,56.7,65.8,58.8,50.4,88,59,30,30.44,30.32,5,1,11,0.00
2013-7-10,88.7,71.5,58.3,63.3,58.7,54.9,90,67,41,30.40,30.31,6,1,10,0.00
2013-7-11,85.3,69.7,58.8,61.0,57.0,53.5,85,67,43,30.37,30.29,6,1,13,0.00
2013-7-12,86.0,69.7,56.1,61.5,56.2,51.7,86,65,41,30.35,30.29,6,1,11,0.00
2013-7-13,91.4,72.1,52.5,62.8,54.2,40.7,81,56,32,30.39,30.30,6,1,11,0.00
2013-7-14,85.3,68.7,54.3,61.5,55.9,48.9,88,67,43,30.42,30.31,6,1,11,0.00
2013-7-15,81.1,68.1,59.2,59.0,55.9,52.8,87,67,46,30.35,30.24,6,1,11,0.00
2013-7-16,81.1,68.2,57.6,58.7,54.9,51.6,82,64,44,30.45,30.28,6,1,11,0.00
2013-7-17,82.0,68.7,59.4,60.1,56.4,53.5,87,67,46,30.52,30.45,7,1,11,0.00
2013-7-18,90.7,71.6,57.4,63.5,57.4,52.3,87,65,35,30.50,30.36,6,1,11,0.00
2013-7-19,92.1,71.5,57.2,64.1,58.1,53.7,90,67,39,30.39,30.24,8,1,13,0.00
2013-7-20,92.7,72.1,58.6,64.6,58.7,54.9,89,67,38,30.29,30.14,5,1,10,0.00
2013-7-21,89.8,72.0,57.7,63.5,58.6,52.6,88,66,41,30.30,30.18,5,1,11,0.00
2013-7-22,86.9,70.8,60.3,63.9,60.3,57.3,91,72,45,30.37,30.29,4,1,8,0.00
2013-7-23,90.1,73.8,63.0,65.0,61.1,58.6,88,67,40,30.42,30.36,6,1,10,0.00
2013-7-24,93.0,75.8,59.9,65.0,59.9,52.7,88,61,37,30.41,30.31,6,1,9,0.00
2013-7-25,89.8,73.0,57.7,65.5,59.5,54.2,92,66,40,30.46,30.36,6,1,10,0.00
2013-7-26,88.3,71.7,59.0,64.3,59.6,56.1,90,69,43,30.52,30.42,5,1,9,0.00
2013-7-27,88.0,71.8,61.3,63.9,59.7,56.8,88,69,44,30.47,30.27,5,1,10,0.00
2013-7-28,87.1,70.8,59.5,63.3,58.4,54.7,87,68,43,30.31,30.22,4,1,10,0.00
2013-7-29,88.7,69.2,54.7,60.6,55.7,49.6,88,65,34,30.44,30.26,6,1,12,0.00
2013-7-30,86.4,69.4,56.7,61.3,56.5,51.9,85,66,41,30.51,30.43,7,1,11,0.00
2013-7-31,86.7,70.5,58.5,61.7,56.2,50.9,86,63,40,30.51,30.44,6,1,11,0.00
2013-8-1,81.7,67.8,52.3,58.0,52.8,46.7,82,61,40,30.51,30.40,5,1,11,0.00
2013-8-2,87.4,68.6,52.3,61.3,54.4,45.3,83,63,40,30.41,30.33,5,1,11,0.00
2013-8-3,87.8,69.2,56.1,61.4,56.1,51.2,87,66,37,30.41,30.31,6,1,9,0.00
2013-8-4,83.1,68.2,59.2,60.6,56.8,53.7,87,69,46,30.44,30.37,8,1,15,0.00
2013-8-5,82.4,68.1,59.0,61.0,56.8,53.8,84,69,47,30.44,30.37,8,1,12,0.00
2013-8-6,80.4,67.9,59.2,60.1,56.6,53.4,85,69,47,30.47,30.40,7,1,11,0.00
2013-8-7,83.3,70.2,60.8,59.4,56.4,53.5,83,64,41,30.52,30.44,7,1,13,0.00
2013-8-8,82.6,69.1,60.4,60.9,57.1,53.6,81,67,47,30.47,30.35,7,1,14,0.00
2013-8-9,81.1,68.6,59.0,60.9,56.5,51.6,84,67,46,30.43,30.35,8,1,12,0.00
2013-8-10,83.5,69.2,60.3,61.7,58.5,55.6,85,71,47,30.48,30.42,7,1,11,0.00
2013-8-11,82.2,69.9,61.2,62.2,58.9,56.3,88,70,48,30.46,30.37,6,1,11,0.00
2013-8-12,88.7,71.5,57.7,64.4,58.8,54.5,91,68,40,30.42,30.36,7,1,11,0.00
2013-8-13,95.2,71.7,55.6,63.0,56.9,52.1,91,65,26,30.42,30.33,6,1,11,0.00
2013-8-14,89.4,71.6,54.0,63.8,57.7,47.9,85,65,38,30.42,30.35,5,0,10,0.00
2013-8-15,90.3,75.0,60.4,68.5,63.7,57.2,90,71,46,30.40,30.34,7,1,11,0.00
2013-8-16,92.1,75.0,63.0,69.5,64.0,58.7,95,72,43,30.42,30.36,7,1,11,0.00
2013-8-17,87.6,69.8,58.1,64.4,58.0,47.3,87,68,45,30.43,30.31,5,0,8,0.00
2013-8-18,100.4,77.3,56.7,67.3,60.2,50.9,89,60,31,30.32,30.18,6,1,10,0.00
2013-8-19,97.2,79.3,66.2,69.2,62.5,53.5,83,59,36,30.33,30.22,6,1,10,0.00
2013-8-20,90.9,75.4,62.6,65.4,61.9,58.2,90,66,40,30.32,30.22,4,1,10,0.00
2013-8-21,86.9,70.7,59.2,63.0,58.5,53.9,87,67,44,30.37,30.27,8,1,11,0.00
2013-8-22,82.6,69.3,60.3,61.1,57.9,54.9,84,69,47,30.40,30.31,7,1,11,0.00
2013-8-23,81.7,69.2,59.2,61.4,57.5,54.3,84,68,47,30.37,30.26,5,1,11,0.00
2013-8-24,88.2,71.4,54.3,63.4,58.1,49.3,86,66,41,30.34,30.28,7,1,13,0.00
2013-8-25,90.9,73.9,62.6,66.7,61.8,57.0,85,68,43,30.38,30.30,7,1,13,0.00
2013-8-26,85.1,71.6,60.3,62.9,57.5,49.8,83,63,38,30.44,30.33,7,1,11,0.00
2013-8-27,90.1,72.1,55.6,63.9,56.8,47.7,82,61,40,30.35,30.24,7,1,11,0.00
2013-8-28,88.9,72.5,57.0,66.7,60.9,52.2,89,69,46,30.39,30.30,6,1,11,0.00
2013-8-29,88.9,74.3,64.6,66.9,63.4,59.6,89,71,45,30.49,30.38,6,1,11,0.00
2013-8-30,97.3,76.8,61.2,69.0,62.5,56.8,96,66,34,30.48,30.35,8,1,11,0.00
2013-8-31,89.6,73.5,58.5,65.0,59.1,49.7,85,63,41,30.42,30.33,5,1,9,0.00
2013-9-1,90.3,73.6,61.2,64.5,61.0,57.3,88,68,37,30.39,30.30,4,1,9,0.00
2013-9-2,90.1,73.8,66.2,67.1,63.7,61.2,89,73,47,30.40,30.31,5,1,11,0.00
2013-9-3,88.5,72.7,57.9,64.2,56.9,53.1,88,61,34,30.44,30.36,10,1,14,0.00
2013-9-4,88.2,71.6,57.7,63.0,56.1,52.5,84,61,35,30.48,30.37,8,1,16,0.00
2013-9-5,87.1,71.1,55.9,62.4,55.7,51.0,90,62,35,30.45,30.38,7,1,14,0.00
2013-9-6,100.4,76.0,54.7,61.1,53.3,47.8,81,51,22,30.44,30.24,5,1,12,0.00
2013-9-7,104.7,81.8,64.9,61.8,53.5,46.7,68,42,18,30.30,30.21,7,1,11,0.00
2013-9-8,99.0,76.4,59.0,66.3,58.8,50.1,84,58,32,30.30,30.18,4,1,8,0.00
2013-9-9,99.0,76.7,59.9,67.1,60.7,52.8,86,62,32,30.25,30.13,6,1,9,0.00
2013-9-10,91.8,72.5,60.1,64.3,58.9,51.0,92,65,38,30.32,30.17,4,0,8,0.00
2013-9-11,86.2,69.7,55.9,61.9,57.6,51.7,87,68,43,30.42,30.32,6,1,14,0.00
2013-9-12,84.4,71.0,63.9,64.5,60.3,57.9,85,71,49,30.41,30.32,7,1,11,0.00
2013-9-13,84.0,69.9,61.0,63.4,59.6,56.6,87,72,49,30.35,30.22,7,1,11,0.00
2013-9-14,81.0,67.7,57.7,61.6,57.7,53.3,86,72,49,30.27,30.19,7,1,11,0.00
2013-9-15,86.9,70.3,56.5,62.8,57.8,51.2,87,68,43,30.31,30.24,5,1,11,0.00
2013-9-16,90.7,71.9,59.2,64.9,58.3,51.4,87,65,33,30.34,30.22,5,1,12,0.00
2013-9-17,82.9,67.4,54.7,59.8,53.0,50.1,91,63,35,30.33,30.28,7,1,16,0.00
2013-9-18,90.7,70.3,54.7,60.0,51.1,41.0,84,57,18,30.35,30.24,7,1,11,0.00
2013-9-19,97.0,73.3,52.9,57.7,49.6,40.9,76,49,18,30.29,30.17,4,0,9,0.00
2013-9-20,85.1,68.0,52.2,61.6,53.7,39.5,76,61,44,30.31,30.22,5,1,9,0.00
2013-9-21,74.7,64.1,53.8,64.6,57.3,50.8,92,79,55,30.35,30.25,6,1,14,0.23
2013-9-22,81.5,64.9,51.4,63.4,53.0,49.4,95,69,39,30.46,30.34,5,1,11,0.01
2013-9-23,90.0,70.4,53.2,60.1,54.7,48.9,87,62,32,30.46,30.35,4,1,10,0.00
2013-9-24,83.1,67.8,56.3,61.2,52.9,47.3,86,62,35,30.44,30.36,8,1,12,0.00
2013-9-25,75.9,64.2,55.4,49.3,46.5,43.3,72,54,34,30.39,30.27,4,1,11,0.00
2013-9-26,82.0,65.8,49.8,45.0,41.1,35.4,73,44,20,30.43,30.28,4,1,12,0.00
2013-9-27,86.9,66.8,51.6,48.6,40.6,34.6,62,42,17,30.54,30.42,5,0,11,0.00
2013-9-28,93.2,70.5,51.8,56.3,44.2,32.2,84,45,12,30.54,30.42,7,0,11,0.00
2013-9-29,85.5,68.5,55.0,61.2,55.9,48.3,85,67,42,30.55,30.47,7,1,12,0.00
2013-9-30,83.7,68.4,56.7,63.6,58.7,52.1,92,73,48,30.52,30.40,6,1,10,0.00
2013-10-1,82.9,64.9,50.5,54.5,50.2,43.9,85,62,35,30.46,30.36,5,1,11,0.00
2013-10-2,87.1,65.6,52.2,58.1,49.2,40.9,81,58,30,30.46,30.36,6,0,11,0.00
2013-10-3,79.7,64.6,48.9,47.3,39.7,34.4,74,44,21,30.51,30.38,4,1,11,0.00
2013-10-4,87.8,70.5,52.5,37.2,34.0,30.8,50,28,14,30.54,30.41,6,1,15,0.00
2013-10-5,94.3,72.3,54.7,38.7,32.9,28.3,40,26,10,30.63,30.52,4,0,8,0.00
2013-10-6,96.1,72.8,54.0,44.2,36.1,30.2,43,28,14,30.55,30.43,4,0,8,0.00
2013-10-7,83.5,64.8,55.6,42.1,34.2,30.2,52,33,19,30.44,30.34,2,0,6,0.00
2013-10-8,84.6,64.9,48.2,52.5,43.8,31.3,78,49,27,30.34,30.16,6,1,9,0.00
2013-10-9,77.7,59.1,46.8,51.1,45.4,40.8,87,64,32,30.19,30.07,7,0,12,0.00
2013-10-10,83.8,62.7,47.3,52.3,46.1,39.8,82,58,27,30.45,30.19,6,0,11,0.00
2013-10-11,77.7,59.0,45.7,55.9,49.0,41.7,87,72,45,30.52,30.41,6,0,9,0.00
2013-10-12,82.0,61.4,46.9,56.9,48.4,42.7,89,66,37,30.45,30.34,4,0,8,0.00
2013-10-13,81.5,62.6,47.7,55.2,45.8,40.7,89,59,29,30.51,30.37,4,0,11,0.00
2013-10-14,86.9,66.1,49.8,50.6,41.1,38.5,68,44,20,30.55,30.42,3,0,7,0.00
2013-10-15,88.5,68.1,52.5,42.6,37.7,34.9,55,36,15,30.48,30.37,4,0,11,0.00
2013-10-16,92.8,70.2,52.7,45.2,37.3,33.7,53,33,15,30.52,30.43,4,0,7,0.00
2013-10-17,90.7,69.7,54.9,45.4,37.1,32.0,48,33,13,30.51,30.39,5,0,10,0.00
2013-10-18,90.1,67.1,49.3,54.9,43.6,31.5,65,45,21,30.49,30.40,4,0,9,0.00
2013-10-19,92.8,67.7,49.6,57.2,46.9,39.6,72,51,19,30.51,30.41,3,0,6,0.00
2013-10-20,88.9,64.0,50.5,58.3,50.1,40.6,95,64,35,30.47,30.34,4,0,8,0.00
2013-10-21,84.4,61.6,49.3,57.6,51.1,42.9,94,72,39,30.45,30.34,4,0,8,0.00
2013-10-22,84.7,61.5,49.1,59.4,52.2,46.0,97,75,39,30.46,30.35,3,0,6,0.00
2013-10-23,80.1,59.2,49.8,58.4,52.5,48.7,98,82,46,30.42,30.33,3,0,6,0.00
2013-10-24,72.1,56.4,49.3,53.7,50.3,46.2,92,81,51,30.56,30.42,4,0,7,0.00
2013-10-25,82.0,60.6,48.0,55.4,49.8,45.0,92,71,39,30.61,30.52,6,0,8,0.00
2013-10-26,88.9,64.6,48.0,58.2,48.5,41.5,80,60,26,30.59,30.45,3,0,6,0.00
2013-10-27,75.6,57.6,47.5,55.4,48.0,41.2,94,72,39,30.48,30.14,9,1,19,0.00
2013-10-28,68.5,58.4,52.3,49.0,46.6,44.9,82,66,44,30.30,30.13,6,1,17,0.00
2013-10-29,70.0,56.7,48.4,50.7,46.7,42.8,81,70,49,30.50,30.30,4,0,8,0.00
2013-10-30,77.2,57.9,43.2,55.6,45.6,40.4,91,67,37,30.59,30.50,4,0,7,0.00
2013-10-31,82.8,61.8,46.4,54.2,44.9,41.2,84,58,28,30.62,30.50,4,0,8,0.00
2013-11-1,88.2,65.5,49.8,51.8,45.2,40.7,74,52,23,30.58,30.44,2,0,6,0.00
2013-11-2,82.2,62.3,50.0,55.7,46.9,37.7,81,59,38,30.47,30.36,4,0,8,0.00
2013-11-3,71.8,55.9,45.3,47.0,37.5,29.6,83,55,21,30.49,30.36,4,0,12,0.00
2013-11-4,74.8,57.2,41.7,46.9,34.8,30.3,77,47,20,30.50,30.35,5,1,11,0.00
2013-11-5,82.4,63.2,49.3,37.0,34.5,30.9,50,37,18,30.67,30.51,4,0,8,0.00
2013-11-6,84.0,63.9,47.8,49.2,39.2,35.1,64,43,19,30.69,30.59,3,0,8,0.00
2013-11-7,86.4,63.0,50.2,48.3,40.4,34.9,72,46,18,30.61,30.50,5,0,8,0.00
2013-11-8,84.6,60.2,46.0,56.1,47.7,40.9,88,66,32,30.53,30.40,4,0,8,0.00
2013-11-9,86.7,61.0,45.9,55.2,45.5,36.0,88,61,29,30.48,30.39,4,0,8,0.00
2013-11-10,76.6,56.7,45.1,53.6,46.5,38.5,85,70,42,30.56,30.47,4,0,8,0.00
2013-11-11,75.7,60.0,49.3,54.6,50.1,45.6,88,71,46,30.60,30.51,2,0,5,0.00
2013-11-12,83.1,63.9,53.8,54.2,48.7,43.2,80,61,30,30.70,30.59,4,0,8,0.00
2013-11-13,87.4,63.2,50.2,57.3,48.7,42.7,85,63,26,30.70,30.55,3,0,5,0.00
2013-11-14,78.3,56.8,47.1,57.7,51.1,44.6,97,83,47,30.57,30.34,4,0,7,0.00
2013-11-15,76.1,55.7,43.0,52.2,42.9,35.3,92,67,29,30.34,30.17,4,0,8,0.00
2013-11-16,73.9,54.3,41.4,49.5,42.9,35.4,89,68,37,30.38,30.22,5,0,9,0.00
2013-11-17,74.8,55.6,44.6,53.9,46.2,41.6,91,74,39,30.53,30.37,3,0,7,0.00
2013-11-18,69.6,53.3,44.2,51.1,45.4,40.9,89,76,49,30.58,30.52,4,0,8,0.00
2013-11-19,70.7,57.2,47.5,55.8,51.0,43.5,98,81,54,30.55,30.39,3,0,6,0.00
2013-11-20,71.2,57.4,51.1,66.3,55.2,50.3,99,93,71,30.40,30.29,2,0,5,0.00
2013-11-21,69.6,56.0,48.7,51.1,40.8,28.4,98,62,26,30.44,30.34,4,0,10,0.00
2013-11-22,79.2,56.1,42.8,33.9,27.5,15.9,66,38,12,30.48,30.34,4,0,8,0.00
2013-11-23,77.7,55.7,42.4,43.3,37.3,32.8,79,55,22,30.55,30.40,2,0,7,0.00
2013-11-24,77.4,55.8,41.0,50.8,41.1,34.0,81,61,30,30.69,30.54,2,0,5,0.00
2013-11-25,76.8,56.1,43.5,48.8,42.1,37.4,81,62,34,30.76,30.69,3,0,6,0.00
2013-11-26,73.4,55.5,44.8,48.7,43.0,37.0,77,64,41,30.70,30.47,2,0,4,0.00
2013-11-27,73.9,56.6,45.1,52.3,44.5,39.3,82,66,42,30.47,30.27,2,0,6,0.00
2013-11-28,79.0,58.5,48.4,51.3,44.2,40.8,78,62,34,30.53,30.31,3,0,5,0.00
2013-11-29,83.8,59.9,47.5,49.7,42.3,36.2,76,55,25,30.67,30.52,3,0,5,0.00
2013-11-30,77.5,56.9,43.9,52.0,42.0,35.7,74,59,34,30.70,30.62,2,0,6,0.00
2013-12-1,80.6,59.5,44.8,52.3,43.9,38.2,81,60,30,30.78,30.66,2,0,5,0.00
2013-12-2,76.6,56.1,43.5,55.6,46.6,38.4,91,72,45,30.67,30.43,4,0,7,0.00
2013-12-3,61.3,51.1,41.0,50.6,39.9,29.4,92,67,41,30.43,30.29,4,1,11,0.00
2013-12-4,63.5,45.6,34.3,33.2,25.5,20.3,70,49,20,30.52,30.38,6,0,9,0.00
2013-12-5,61.7,42.5,30.7,27.1,20.7,16.6,70,45,19,30.61,30.52,3,0,7,0.00
2013-12-6,64.0,45.1,30.6,47.4,34.8,25.5,92,70,35,30.63,30.37,4,1,11,0.00
2013-12-7,57.2,45.1,33.6,47.8,32.5,25.6,94,63,33,30.68,30.36,5,1,14,0.00
2013-12-8,55.4,39.6,30.9,29.9,25.4,19.9,85,59,31,30.76,30.66,4,0,11,0.00
2013-12-9,62.2,41.9,30.6,23.9,20.0,14.4,62,44,21,30.85,30.75,3,0,9,0.00
2013-12-10,62.1,43.3,30.0,31.7,27.0,21.8,73,55,29,30.85,30.64,4,0,8,0.00
2013-12-11,66.6,47.0,33.4,34.0,29.4,24.4,71,53,26,30.68,30.61,3,0,7,0.00
2013-12-12,70.5,48.8,34.3,36.5,31.3,25.6,72,54,22,30.70,30.60,3,0,6,0.00
2013-12-13,70.3,49.2,36.3,46.5,34.1,28.8,76,58,29,30.78,30.68,3,0,7,0.00
2013-12-14,71.4,51.6,37.4,45.6,35.9,30.1,79,58,29,30.83,30.74,4,0,7,0.00
2013-12-15,72.7,52.3,38.5,43.7,35.7,30.3,74,56,30,30.81,30.67,2,0,6,0.00
2013-12-16,80.8,55.6,42.3,41.4,35.4,30.5,63,49,23,30.68,30.55,2,0,7,0.00
2013-12-17,74.8,56.3,43.0,44.2,38.1,31.4,65,52,31,30.61,30.47,2,0,5,0.00
2013-12-18,74.8,54.0,42.1,46.6,41.8,35.4,89,66,34,30.48,30.24,2,0,5,0.00
2013-12-19,66.2,51.1,41.9,43.9,36.5,22.8,92,61,32,30.37,30.17,3,0,8,0.00
2013-12-20,70.7,50.8,37.4,28.4,18.4,7.4,56,33,10,30.46,30.37,4,0,7,0.00
2013-12-21,71.8,52.7,38.8,49.7,39.3,24.8,81,62,43,30.52,30.41,4,0,9,0.00
2013-12-22,77.2,56.7,43.5,49.3,39.2,36.3,82,56,24,30.73,30.52,3,0,8,0.00
2013-12-23,75.7,55.0,41.9,47.9,40.6,35.2,80,61,34,30.82,30.72,2,0,6,0.00
2013-12-24,79.3,57.5,42.1,47.4,38.8,33.2,78,53,28,30.78,30.64,3,0,8,0.00
2013-12-25,76.1,55.3,39.7,44.6,38.0,31.1,73,54,30,30.73,30.63,3,0,6,0.00
2013-12-26,79.7,57.0,41.0,46.1,38.5,32.3,74,53,28,30.70,30.60,2,0,5,0.00
2013-12-27,70.9,52.2,37.9,44.7,37.3,29.0,74,58,38,30.67,30.55,2,0,4,0.00
2013-12-28,77.5,54.0,38.7,42.3,31.1,28.0,72,46,17,30.59,30.47,3,0,8,0.00
2013-12-29,78.6,58.6,47.3,29.2,24.8,16.3,46,30,10,30.62,30.53,4,0,8,0.00
2013-12-30,79.7,54.7,39.0,39.3,30.9,25.1,58,43,19,30.70,30.61,2,0,4,0.00
2013-12-31,72.9,50.7,36.7,46.7,34.5,24.5,68,55,33,30.71,30.58,4,0,8,0.00
2014-1-1,75.6,53.5,37.2,45.5,34.2,25.8,65,50,24,30.65,30.56,2,0,5,0.00
2014-1-2,77.5,55.3,40.3,43.9,35.1,30.2,69,49,24,30.61,30.49,3,0,8,0.00